Stainburn, United Kingdom
Current Conditions -  °F | °C
As of 4:20 PM on Thursday 30 Oct 2014 (Local Time) from EGNM Reporting Station
Broken Clouds Broken Clouds  
Wind Chill: 59°   Ceiling: 1900
Heat Index: 59°   Visibility: 6mi
Dew Point: 57°   Wind: 6mph
Humidity: 94%   Direction: 190°S
Pressure: 29.97"   Gusts: NA
Location:  53.93°N, 1.62°W
Report Text: EGNM 301620Z 19005KT 100V240 9999 FEW006 BKN019 15/14 Q1015
Loading
Personal Weather Stations






























Interactive Weather Map
Tropical Storm Tracking
New forecast layout! Learn more

10-Day Weather Forecast

Advertisements
Track Severe Weather on mobile